sensor_id;sensor_type;location;lat;lon;timestamp;P1;durP1;ratioP1;P2;durP2;ratioP2
15102;SDS011;7652;53.584;9.998;2022-10-13T00:01:56;3.40;;;2.17;;
15102;SDS011;7652;53.584;9.998;2022-10-13T00:04:59;6.13;;;2.87;;
15102;SDS011;7652;53.584;9.998;2022-10-13T00:08:02;2.10;;;1.90;;
15102;SDS011;7652;53.584;9.998;2022-10-13T00:11:10;4.13;;;2.10;;
15102;SDS011;7652;53.584;9.998;2022-10-13T00:14:14;4.33;;;2.30;;
15102;SDS011;7652;53.584;9.998;2022-10-13T00:17:18;5.17;;;2.37;;
15102;SDS011;7652;53.584;9.998;2022-10-13T00:20:21;2.17;;;1.80;;
15102;SDS011;7652;53.584;9.998;2022-10-13T00:23:24;4.13;;;2.30;;
15102;SDS011;7652;53.584;9.998;2022-10-13T00:26:27;3.93;;;2.63;;
15102;SDS011;7652;53.584;9.998;2022-10-13T00:29:30;5.00;;;2.40;;
15102;SDS011;7652;53.584;9.998;2022-10-13T00:32:35;6.67;;;2.30;;
15102;SDS011;7652;53.584;9.998;2022-10-13T00:35:41;5.23;;;2.10;;
15102;SDS011;7652;53.584;9.998;2022-10-13T00:38:45;3.73;;;1.80;;
15102;SDS011;7652;53.584;9.998;2022-10-13T00:41:48;2.43;;;2.23;;
15102;SDS011;7652;53.584;9.998;2022-10-13T00:44:59;3.50;;;2.47;;
15102;SDS011;7652;53.584;9.998;2022-10-13T00:48:06;2.50;;;2.10;;
15102;SDS011;7652;53.584;9.998;2022-10-13T00:51:09;5.63;;;2.00;;
15102;SDS011;7652;53.584;9.998;2022-10-13T00:54:13;2.77;;;1.93;;
15102;SDS011;7652;53.584;9.998;2022-10-13T00:57:18;5.07;;;2.37;;
15102;SDS011;7652;53.584;9.998;2022-10-13T01:00:22;4.07;;;2.93;;
15102;SDS011;7652;53.584;9.998;2022-10-13T01:03:27;3.70;;;2.40;;
15102;SDS011;7652;53.584;9.998;2022-10-13T01:06:30;5.00;;;2.10;;
15102;SDS011;7652;53.584;9.998;2022-10-13T01:09:33;8.07;;;2.30;;
15102;SDS011;7652;53.584;9.998;2022-10-13T01:12:41;2.83;;;2.00;;
15102;SDS011;7652;53.584;9.998;2022-10-13T01:15:51;4.33;;;2.60;;
15102;SDS011;7652;53.584;9.998;2022-10-13T01:19:04;4.73;;;2.50;;
15102;SDS011;7652;53.584;9.998;2022-10-13T01:22:26;4.23;;;2.40;;
15102;SDS011;7652;53.584;9.998;2022-10-13T01:25:51;2.67;;;1.87;;
15102;SDS011;7652;53.584;9.998;2022-10-13T01:29:12;4.57;;;2.40;;
15102;SDS011;7652;53.584;9.998;2022-10-13T01:32:45;4.23;;;1.90;;
15102;SDS011;7652;53.584;9.998;2022-10-13T01:36:12;3.53;;;2.27;;
15102;SDS011;7652;53.584;9.998;2022-10-13T01:39:22;2.30;;;2.13;;
15102;SDS011;7652;53.584;9.998;2022-10-13T01:42:29;6.20;;;2.47;;
15102;SDS011;7652;53.584;9.998;2022-10-13T01:45:37;4.17;;;2.20;;
15102;SDS011;7652;53.584;9.998;2022-10-13T01:48:47;4.00;;;2.57;;
15102;SDS011;7652;53.584;9.998;2022-10-13T01:51:53;2.73;;;2.40;;
15102;SDS011;7652;53.584;9.998;2022-10-13T01:55:03;2.97;;;2.20;;
15102;SDS011;7652;53.584;9.998;2022-10-13T01:58:09;6.20;;;2.50;;
15102;SDS011;7652;53.584;9.998;2022-10-13T02:01:19;3.40;;;2.13;;
15102;SDS011;7652;53.584;9.998;2022-10-13T02:04:33;4.97;;;2.50;;
15102;SDS011;7652;53.584;9.998;2022-10-13T02:07:43;3.33;;;2.30;;
15102;SDS011;7652;53.584;9.998;2022-10-13T02:10:51;2.33;;;2.00;;
15102;SDS011;7652;53.584;9.998;2022-10-13T02:14:01;6.30;;;2.00;;
15102;SDS011;7652;53.584;9.998;2022-10-13T02:17:08;2.77;;;2.30;;
15102;SDS011;7652;53.584;9.998;2022-10-13T02:20:13;4.47;;;2.40;;
15102;SDS011;7652;53.584;9.998;2022-10-13T02:23:18;2.33;;;2.10;;
15102;SDS011;7652;53.584;9.998;2022-10-13T02:26:21;4.77;;;2.33;;
15102;SDS011;7652;53.584;9.998;2022-10-13T02:29:24;3.00;;;2.33;;
15102;SDS011;7652;53.584;9.998;2022-10-13T02:32:27;4.10;;;2.60;;
15102;SDS011;7652;53.584;9.998;2022-10-13T02:35:32;3.20;;;2.50;;
15102;SDS011;7652;53.584;9.998;2022-10-13T02:38:35;2.87;;;2.47;;
15102;SDS011;7652;53.584;9.998;2022-10-13T02:41:38;4.70;;;2.40;;
15102;SDS011;7652;53.584;9.998;2022-10-13T02:44:41;2.57;;;2.33;;
15102;SDS011;7652;53.584;9.998;2022-10-13T02:47:44;3.43;;;2.10;;
15102;SDS011;7652;53.584;9.998;2022-10-13T02:50:49;3.90;;;2.57;;
15102;SDS011;7652;53.584;9.998;2022-10-13T02:53:52;2.87;;;2.10;;
15102;SDS011;7652;53.584;9.998;2022-10-13T02:56:55;3.83;;;2.43;;
15102;SDS011;7652;53.584;9.998;2022-10-13T02:59:58;2.13;;;1.73;;
15102;SDS011;7652;53.584;9.998;2022-10-13T03:03:01;3.83;;;2.23;;
15102;SDS011;7652;53.584;9.998;2022-10-13T03:06:06;2.40;;;2.20;;
15102;SDS011;7652;53.584;9.998;2022-10-13T03:09:09;3.07;;;2.30;;
15102;SDS011;7652;53.584;9.998;2022-10-13T03:12:12;3.50;;;2.77;;
15102;SDS011;7652;53.584;9.998;2022-10-13T03:15:15;3.90;;;2.33;;
15102;SDS011;7652;53.584;9.998;2022-10-13T03:18:18;3.00;;;2.50;;
15102;SDS011;7652;53.584;9.998;2022-10-13T03:21:23;3.23;;;2.43;;
15102;SDS011;7652;53.584;9.998;2022-10-13T03:24:26;4.43;;;2.60;;
15102;SDS011;7652;53.584;9.998;2022-10-13T03:27:29;4.60;;;2.27;;
15102;SDS011;7652;53.584;9.998;2022-10-13T03:30:31;3.93;;;2.90;;
15102;SDS011;7652;53.584;9.998;2022-10-13T03:33:34;3.53;;;2.37;;
15102;SDS011;7652;53.584;9.998;2022-10-13T03:36:39;4.27;;;3.37;;
15102;SDS011;7652;53.584;9.998;2022-10-13T03:39:42;3.40;;;2.40;;
15102;SDS011;7652;53.584;9.998;2022-10-13T03:42:45;2.70;;;2.50;;
15102;SDS011;7652;53.584;9.998;2022-10-13T03:45:53;2.67;;;2.43;;
15102;SDS011;7652;53.584;9.998;2022-10-13T03:48:56;5.77;;;2.70;;
15102;SDS011;7652;53.584;9.998;2022-10-13T03:52:01;3.57;;;2.50;;
15102;SDS011;7652;53.584;9.998;2022-10-13T03:55:04;3.10;;;2.80;;
15102;SDS011;7652;53.584;9.998;2022-10-13T03:58:07;4.37;;;3.30;;
15102;SDS011;7652;53.584;9.998;2022-10-13T04:01:11;4.30;;;3.13;;
15102;SDS011;7652;53.584;9.998;2022-10-13T04:04:15;6.03;;;3.03;;
15102;SDS011;7652;53.584;9.998;2022-10-13T04:07:19;3.53;;;2.70;;
15102;SDS011;7652;53.584;9.998;2022-10-13T04:10:22;5.10;;;2.67;;
15102;SDS011;7652;53.584;9.998;2022-10-13T04:13:25;4.77;;;2.93;;
15102;SDS011;7652;53.584;9.998;2022-10-13T04:16:29;4.13;;;2.80;;
15102;SDS011;7652;53.584;9.998;2022-10-13T04:19:32;3.70;;;2.60;;
15102;SDS011;7652;53.584;9.998;2022-10-13T04:22:37;3.10;;;2.83;;
15102;SDS011;7652;53.584;9.998;2022-10-13T04:25:40;3.80;;;2.77;;
15102;SDS011;7652;53.584;9.998;2022-10-13T04:28:43;2.73;;;2.40;;
15102;SDS011;7652;53.584;9.998;2022-10-13T04:31:46;3.00;;;2.63;;
15102;SDS011;7652;53.584;9.998;2022-10-13T04:34:49;5.33;;;3.23;;
15102;SDS011;7652;53.584;9.998;2022-10-13T04:37:53;4.43;;;2.90;;
15102;SDS011;7652;53.584;9.998;2022-10-13T04:40:57;3.23;;;2.70;;
15102;SDS011;7652;53.584;9.998;2022-10-13T04:44:03;3.00;;;2.40;;
15102;SDS011;7652;53.584;9.998;2022-10-13T04:47:06;4.37;;;2.93;;
15102;SDS011;7652;53.584;9.998;2022-10-13T04:50:09;3.67;;;2.97;;
15102;SDS011;7652;53.584;9.998;2022-10-13T04:53:13;4.37;;;2.93;;
15102;SDS011;7652;53.584;9.998;2022-10-13T04:56:19;4.27;;;2.90;;
15102;SDS011;7652;53.584;9.998;2022-10-13T04:59:22;4.83;;;2.87;;
15102;SDS011;7652;53.584;9.998;2022-10-13T05:02:25;4.60;;;3.30;;
15102;SDS011;7652;53.584;9.998;2022-10-13T05:05:29;6.13;;;3.10;;
15102;SDS011;7652;53.584;9.998;2022-10-13T05:08:33;3.93;;;3.20;;
15102;SDS011;7652;53.584;9.998;2022-10-13T05:11:37;4.73;;;2.77;;
15102;SDS011;7652;53.584;9.998;2022-10-13T05:14:40;4.10;;;3.00;;
15102;SDS011;7652;53.584;9.998;2022-10-13T05:17:43;5.77;;;3.30;;
15102;SDS011;7652;53.584;9.998;2022-10-13T05:20:46;4.67;;;2.90;;
15102;SDS011;7652;53.584;9.998;2022-10-13T05:23:52;4.03;;;3.07;;
15102;SDS011;7652;53.584;9.998;2022-10-13T05:26:58;4.13;;;3.17;;
15102;SDS011;7652;53.584;9.998;2022-10-13T05:30:01;4.50;;;3.47;;
15102;SDS011;7652;53.584;9.998;2022-10-13T05:33:04;6.47;;;3.47;;
15102;SDS011;7652;53.584;9.998;2022-10-13T05:36:08;6.77;;;3.23;;
15102;SDS011;7652;53.584;9.998;2022-10-13T05:39:14;5.00;;;3.10;;
15102;SDS011;7652;53.584;9.998;2022-10-13T05:42:17;4.33;;;2.93;;
15102;SDS011;7652;53.584;9.998;2022-10-13T05:45:20;5.33;;;2.97;;
15102;SDS011;7652;53.584;9.998;2022-10-13T05:48:24;6.07;;;3.63;;
15102;SDS011;7652;53.584;9.998;2022-10-13T05:51:29;4.03;;;3.30;;
15102;SDS011;7652;53.584;9.998;2022-10-13T05:54:36;3.30;;;3.00;;
15102;SDS011;7652;53.584;9.998;2022-10-13T05:57:43;4.37;;;3.90;;
15102;SDS011;7652;53.584;9.998;2022-10-13T06:00:49;6.73;;;3.87;;
15102;SDS011;7652;53.584;9.998;2022-10-13T06:03:57;3.43;;;2.90;;
15102;SDS011;7652;53.584;9.998;2022-10-13T06:07:02;4.20;;;3.37;;
15102;SDS011;7652;53.584;9.998;2022-10-13T06:10:07;4.90;;;3.67;;
15102;SDS011;7652;53.584;9.998;2022-10-13T06:13:11;4.63;;;3.00;;
15102;SDS011;7652;53.584;9.998;2022-10-13T06:16:14;5.17;;;3.60;;
15102;SDS011;7652;53.584;9.998;2022-10-13T06:19:17;5.20;;;3.50;;
15102;SDS011;7652;53.584;9.998;2022-10-13T06:22:20;3.63;;;3.10;;
15102;SDS011;7652;53.584;9.998;2022-10-13T06:25:25;8.60;;;4.10;;
15102;SDS011;7652;53.584;9.998;2022-10-13T06:28:29;5.47;;;3.93;;
15102;SDS011;7652;53.584;9.998;2022-10-13T06:31:32;4.27;;;3.87;;
15102;SDS011;7652;53.584;9.998;2022-10-13T06:34:35;6.03;;;3.67;;
15102;SDS011;7652;53.584;9.998;2022-10-13T06:37:38;5.77;;;3.33;;
15102;SDS011;7652;53.584;9.998;2022-10-13T06:40:42;8.13;;;3.80;;
15102;SDS011;7652;53.584;9.998;2022-10-13T06:43:45;5.73;;;3.73;;
15102;SDS011;7652;53.584;9.998;2022-10-13T06:46:48;4.73;;;3.63;;
15102;SDS011;7652;53.584;9.998;2022-10-13T06:49:51;7.43;;;3.63;;
15102;SDS011;7652;53.584;9.998;2022-10-13T06:52:54;6.10;;;3.70;;
15102;SDS011;7652;53.584;9.998;2022-10-13T06:56:00;6.77;;;4.20;;
15102;SDS011;7652;53.584;9.998;2022-10-13T06:59:05;6.60;;;3.77;;
15102;SDS011;7652;53.584;9.998;2022-10-13T07:02:08;5.13;;;4.63;;
15102;SDS011;7652;53.584;9.998;2022-10-13T07:05:12;6.00;;;4.17;;
15102;SDS011;7652;53.584;9.998;2022-10-13T07:08:15;5.63;;;4.20;;
15102;SDS011;7652;53.584;9.998;2022-10-13T07:11:19;5.23;;;4.17;;
15102;SDS011;7652;53.584;9.998;2022-10-13T07:14:22;6.20;;;4.57;;
15102;SDS011;7652;53.584;9.998;2022-10-13T07:17:25;5.00;;;3.80;;
15102;SDS011;7652;53.584;9.998;2022-10-13T07:20:28;6.07;;;3.83;;
15102;SDS011;7652;53.584;9.998;2022-10-13T07:23:32;4.40;;;4.00;;
15102;SDS011;7652;53.584;9.998;2022-10-13T07:26:36;5.53;;;4.17;;
15102;SDS011;7652;53.584;9.998;2022-10-13T07:29:39;6.93;;;4.27;;
15102;SDS011;7652;53.584;9.998;2022-10-13T07:32:42;6.23;;;4.20;;
15102;SDS011;7652;53.584;9.998;2022-10-13T07:35:45;4.87;;;3.67;;
15102;SDS011;7652;53.584;9.998;2022-10-13T07:38:48;8.73;;;4.53;;
15102;SDS011;7652;53.584;9.998;2022-10-13T07:41:52;6.57;;;3.83;;
15102;SDS011;7652;53.584;9.998;2022-10-13T07:44:55;6.13;;;4.80;;
15102;SDS011;7652;53.584;9.998;2022-10-13T07:47:58;6.20;;;4.53;;
15102;SDS011;7652;53.584;9.998;2022-10-13T07:51:02;6.83;;;4.43;;
15102;SDS011;7652;53.584;9.998;2022-10-13T07:54:06;10.73;;;5.23;;
15102;SDS011;7652;53.584;9.998;2022-10-13T07:57:10;6.33;;;4.73;;
15102;SDS011;7652;53.584;9.998;2022-10-13T08:00:13;7.03;;;4.30;;
15102;SDS011;7652;53.584;9.998;2022-10-13T08:03:17;5.80;;;4.80;;
15102;SDS011;7652;53.584;9.998;2022-10-13T08:06:20;8.47;;;5.37;;
15102;SDS011;7652;53.584;9.998;2022-10-13T08:09:23;7.73;;;5.60;;
15102;SDS011;7652;53.584;9.998;2022-10-13T08:12:27;5.70;;;4.50;;
15102;SDS011;7652;53.584;9.998;2022-10-13T08:15:30;8.03;;;5.00;;
15102;SDS011;7652;53.584;9.998;2022-10-13T08:18:33;7.27;;;5.00;;
15102;SDS011;7652;53.584;9.998;2022-10-13T08:21:36;8.30;;;5.53;;
15102;SDS011;7652;53.584;9.998;2022-10-13T08:24:58;6.70;;;4.83;;
15102;SDS011;7652;53.584;9.998;2022-10-13T08:28:04;7.57;;;4.93;;
15102;SDS011;7652;53.584;9.998;2022-10-13T08:31:07;5.67;;;5.07;;
15102;SDS011;7652;53.584;9.998;2022-10-13T08:34:10;6.63;;;5.10;;
15102;SDS011;7652;53.584;9.998;2022-10-13T08:37:14;8.13;;;4.90;;
15102;SDS011;7652;53.584;9.998;2022-10-13T08:40:19;6.83;;;5.53;;
15102;SDS011;7652;53.584;9.998;2022-10-13T08:43:24;6.90;;;5.47;;
15102;SDS011;7652;53.584;9.998;2022-10-13T08:46:30;6.20;;;5.30;;
15102;SDS011;7652;53.584;9.998;2022-10-13T08:49:39;6.50;;;5.50;;
15102;SDS011;7652;53.584;9.998;2022-10-13T08:52:44;7.63;;;5.10;;
15102;SDS011;7652;53.584;9.998;2022-10-13T08:55:51;9.13;;;5.03;;
15102;SDS011;7652;53.584;9.998;2022-10-13T08:58:59;7.00;;;5.70;;
15102;SDS011;7652;53.584;9.998;2022-10-13T09:02:07;10.37;;;5.20;;
15102;SDS011;7652;53.584;9.998;2022-10-13T09:05:17;8.37;;;5.13;;
15102;SDS011;7652;53.584;9.998;2022-10-13T09:08:31;7.20;;;5.53;;
15102;SDS011;7652;53.584;9.998;2022-10-13T09:11:41;7.83;;;5.50;;
15102;SDS011;7652;53.584;9.998;2022-10-13T09:14:54;8.47;;;5.87;;
15102;SDS011;7652;53.584;9.998;2022-10-13T09:18:09;7.97;;;5.50;;
15102;SDS011;7652;53.584;9.998;2022-10-13T09:21:15;9.77;;;6.03;;
15102;SDS011;7652;53.584;9.998;2022-10-13T09:24:23;7.80;;;5.57;;
15102;SDS011;7652;53.584;9.998;2022-10-13T09:27:27;8.43;;;5.70;;
15102;SDS011;7652;53.584;9.998;2022-10-13T09:30:33;7.33;;;5.13;;
15102;SDS011;7652;53.584;9.998;2022-10-13T09:33:37;7.60;;;5.70;;
15102;SDS011;7652;53.584;9.998;2022-10-13T09:36:53;8.57;;;5.47;;
15102;SDS011;7652;53.584;9.998;2022-10-13T09:40:00;8.13;;;5.47;;
15102;SDS011;7652;53.584;9.998;2022-10-13T09:43:19;6.97;;;5.27;;
15102;SDS011;7652;53.584;9.998;2022-10-13T09:46:30;11.77;;;6.20;;
15102;SDS011;7652;53.584;9.998;2022-10-13T09:49:37;7.80;;;5.87;;
15102;SDS011;7652;53.584;9.998;2022-10-13T09:52:42;8.07;;;5.87;;
15102;SDS011;7652;53.584;9.998;2022-10-13T09:55:47;9.87;;;5.77;;
15102;SDS011;7652;53.584;9.998;2022-10-13T09:58:50;8.07;;;6.07;;
15102;SDS011;7652;53.584;9.998;2022-10-13T10:02:14;7.87;;;5.77;;
15102;SDS011;7652;53.584;9.998;2022-10-13T10:05:27;10.97;;;6.57;;
15102;SDS011;7652;53.584;9.998;2022-10-13T10:08:40;9.27;;;6.33;;
15102;SDS011;7652;53.584;9.998;2022-10-13T10:12:03;8.17;;;6.00;;
15102;SDS011;7652;53.584;9.998;2022-10-13T10:15:14;11.80;;;5.87;;
15102;SDS011;7652;53.584;9.998;2022-10-13T10:18:25;6.23;;;5.23;;
15102;SDS011;7652;53.584;9.998;2022-10-13T10:21:35;7.77;;;6.00;;
15102;SDS011;7652;53.584;9.998;2022-10-13T10:24:43;9.37;;;6.07;;
15102;SDS011;7652;53.584;9.998;2022-10-13T10:27:55;9.00;;;6.33;;
15102;SDS011;7652;53.584;9.998;2022-10-13T10:31:13;6.87;;;5.60;;
15102;SDS011;7652;53.584;9.998;2022-10-13T10:34:36;11.77;;;6.87;;
15102;SDS011;7652;53.584;9.998;2022-10-13T10:37:49;9.93;;;7.03;;
15102;SDS011;7652;53.584;9.998;2022-10-13T10:41:02;8.93;;;6.57;;
15102;SDS011;7652;53.584;9.998;2022-10-13T10:44:12;9.23;;;6.43;;
15102;SDS011;7652;53.584;9.998;2022-10-13T10:47:19;9.27;;;6.07;;
15102;SDS011;7652;53.584;9.998;2022-10-13T10:50:28;10.40;;;6.63;;
15102;SDS011;7652;53.584;9.998;2022-10-13T10:53:33;11.00;;;6.40;;
15102;SDS011;7652;53.584;9.998;2022-10-13T10:56:44;9.70;;;6.87;;
15102;SDS011;7652;53.584;9.998;2022-10-13T10:59:52;7.97;;;6.30;;
15102;SDS011;7652;53.584;9.998;2022-10-13T11:03:02;9.33;;;6.60;;
15102;SDS011;7652;53.584;9.998;2022-10-13T11:06:21;8.17;;;6.70;;
15102;SDS011;7652;53.584;9.998;2022-10-13T11:13:11;8.23;;;6.20;;
15102;SDS011;7652;53.584;9.998;2022-10-13T11:16:22;7.17;;;5.80;;
15102;SDS011;7652;53.584;9.998;2022-10-13T11:19:30;9.60;;;6.43;;
15102;SDS011;7652;53.584;9.998;2022-10-13T11:22:36;7.90;;;5.43;;
15102;SDS011;7652;53.584;9.998;2022-10-13T11:25:39;8.03;;;5.67;;
15102;SDS011;7652;53.584;9.998;2022-10-13T11:28:44;9.77;;;6.70;;
15102;SDS011;7652;53.584;9.998;2022-10-13T11:31:52;6.77;;;5.63;;
15102;SDS011;7652;53.584;9.998;2022-10-13T11:34:56;7.63;;;6.07;;
15102;SDS011;7652;53.584;9.998;2022-10-13T11:38:04;8.20;;;6.27;;
15102;SDS011;7652;53.584;9.998;2022-10-13T11:41:26;8.23;;;5.87;;
15102;SDS011;7652;53.584;9.998;2022-10-13T11:44:35;6.50;;;5.50;;
15102;SDS011;7652;53.584;9.998;2022-10-13T11:51:33;8.03;;;5.30;;
15102;SDS011;7652;53.584;9.998;2022-10-13T11:54:47;6.20;;;5.13;;
15102;SDS011;7652;53.584;9.998;2022-10-13T11:58:06;7.00;;;5.63;;
15102;SDS011;7652;53.584;9.998;2022-10-13T12:01:11;7.27;;;4.73;;
15102;SDS011;7652;53.584;9.998;2022-10-13T12:04:14;7.03;;;5.60;;
15102;SDS011;7652;53.584;9.998;2022-10-13T12:07:22;7.50;;;5.47;;
15102;SDS011;7652;53.584;9.998;2022-10-13T12:10:29;6.83;;;5.27;;
15102;SDS011;7652;53.584;9.998;2022-10-13T12:13:33;5.80;;;4.87;;
15102;SDS011;7652;53.584;9.998;2022-10-13T12:16:38;5.50;;;4.57;;
15102;SDS011;7652;53.584;9.998;2022-10-13T12:19:54;5.40;;;4.60;;
15102;SDS011;7652;53.584;9.998;2022-10-13T12:22:59;7.70;;;5.30;;
15102;SDS011;7652;53.584;9.998;2022-10-13T12:26:03;6.30;;;4.93;;
15102;SDS011;7652;53.584;9.998;2022-10-13T12:29:09;8.30;;;5.30;;
15102;SDS011;7652;53.584;9.998;2022-10-13T12:32:18;6.20;;;4.40;;
15102;SDS011;7652;53.584;9.998;2022-10-13T12:35:22;7.20;;;4.70;;
15102;SDS011;7652;53.584;9.998;2022-10-13T12:38:27;5.70;;;4.43;;
15102;SDS011;7652;53.584;9.998;2022-10-13T12:41:33;6.37;;;4.40;;
15102;SDS011;7652;53.584;9.998;2022-10-13T12:44:37;6.23;;;4.60;;
15102;SDS011;7652;53.584;9.998;2022-10-13T12:47:45;6.80;;;5.30;;
15102;SDS011;7652;53.584;9.998;2022-10-13T12:50:51;8.03;;;4.80;;
15102;SDS011;7652;53.584;9.998;2022-10-13T12:53:54;9.67;;;6.20;;
15102;SDS011;7652;53.584;9.998;2022-10-13T12:57:00;11.23;;;6.00;;
15102;SDS011;7652;53.584;9.998;2022-10-13T13:00:16;9.10;;;6.30;;
15102;SDS011;7652;53.584;9.998;2022-10-13T13:03:24;5.80;;;4.97;;
15102;SDS011;7652;53.584;9.998;2022-10-13T13:06:30;6.33;;;4.97;;
15102;SDS011;7652;53.584;9.998;2022-10-13T13:09:35;7.23;;;5.97;;
15102;SDS011;7652;53.584;9.998;2022-10-13T13:12:40;8.37;;;6.30;;
15102;SDS011;7652;53.584;9.998;2022-10-13T13:15:44;9.33;;;7.30;;
15102;SDS011;7652;53.584;9.998;2022-10-13T13:18:48;6.00;;;5.40;;
15102;SDS011;7652;53.584;9.998;2022-10-13T13:21:52;8.43;;;5.47;;
15102;SDS011;7652;53.584;9.998;2022-10-13T13:24:55;6.40;;;5.33;;
15102;SDS011;7652;53.584;9.998;2022-10-13T13:27:59;6.87;;;5.60;;
15102;SDS011;7652;53.584;9.998;2022-10-13T13:31:07;8.00;;;5.40;;
15102;SDS011;7652;53.584;9.998;2022-10-13T13:34:11;8.30;;;5.43;;
15102;SDS011;7652;53.584;9.998;2022-10-13T13:37:25;9.57;;;5.47;;
15102;SDS011;7652;53.584;9.998;2022-10-13T13:40:31;8.03;;;5.27;;
15102;SDS011;7652;53.584;9.998;2022-10-13T13:43:35;8.97;;;5.43;;
15102;SDS011;7652;53.584;9.998;2022-10-13T13:46:38;6.47;;;5.03;;
15102;SDS011;7652;53.584;9.998;2022-10-13T13:49:42;7.17;;;5.50;;
15102;SDS011;7652;53.584;9.998;2022-10-13T13:52:45;7.07;;;5.13;;
15102;SDS011;7652;53.584;9.998;2022-10-13T13:55:48;7.27;;;5.07;;
15102;SDS011;7652;53.584;9.998;2022-10-13T13:58:53;6.53;;;4.30;;
15102;SDS011;7652;53.584;9.998;2022-10-13T14:01:56;5.87;;;5.00;;
15102;SDS011;7652;53.584;9.998;2022-10-13T14:04:59;5.57;;;4.50;;
15102;SDS011;7652;53.584;9.998;2022-10-13T14:08:02;7.63;;;4.40;;
15102;SDS011;7652;53.584;9.998;2022-10-13T14:11:05;6.80;;;4.77;;
15102;SDS011;7652;53.584;9.998;2022-10-13T14:14:10;6.50;;;5.03;;
15102;SDS011;7652;53.584;9.998;2022-10-13T14:17:13;8.00;;;3.90;;
15102;SDS011;7652;53.584;9.998;2022-10-13T14:20:16;8.27;;;5.27;;
15102;SDS011;7652;53.584;9.998;2022-10-13T14:23:19;5.83;;;4.80;;
15102;SDS011;7652;53.584;9.998;2022-10-13T14:26:22;6.97;;;4.43;;
15102;SDS011;7652;53.584;9.998;2022-10-13T14:29:27;4.93;;;4.37;;
15102;SDS011;7652;53.584;9.998;2022-10-13T14:32:30;5.57;;;4.23;;
15102;SDS011;7652;53.584;9.998;2022-10-13T14:35:33;5.37;;;4.13;;
15102;SDS011;7652;53.584;9.998;2022-10-13T14:38:36;7.13;;;4.57;;
15102;SDS011;7652;53.584;9.998;2022-10-13T14:41:39;6.97;;;4.60;;
15102;SDS011;7652;53.584;9.998;2022-10-13T14:44:43;7.80;;;4.33;;
15102;SDS011;7652;53.584;9.998;2022-10-13T14:47:46;7.33;;;4.47;;
15102;SDS011;7652;53.584;9.998;2022-10-13T14:50:49;4.57;;;4.17;;
15102;SDS011;7652;53.584;9.998;2022-10-13T14:53:52;7.27;;;4.70;;
15102;SDS011;7652;53.584;9.998;2022-10-13T14:56:55;8.73;;;4.73;;
15102;SDS011;7652;53.584;9.998;2022-10-13T15:00:02;6.27;;;4.10;;
15102;SDS011;7652;53.584;9.998;2022-10-13T15:03:05;5.37;;;3.70;;
15102;SDS011;7652;53.584;9.998;2022-10-13T15:06:09;7.60;;;4.73;;
15102;SDS011;7652;53.584;9.998;2022-10-13T15:09:15;5.17;;;3.93;;
15102;SDS011;7652;53.584;9.998;2022-10-13T15:12:18;5.33;;;4.00;;
15102;SDS011;7652;53.584;9.998;2022-10-13T15:15:23;7.13;;;3.80;;
15102;SDS011;7652;53.584;9.998;2022-10-13T15:18:26;6.03;;;4.50;;
15102;SDS011;7652;53.584;9.998;2022-10-13T15:21:30;6.73;;;3.77;;
15102;SDS011;7652;53.584;9.998;2022-10-13T15:24:33;8.30;;;3.90;;
15102;SDS011;7652;53.584;9.998;2022-10-13T15:27:36;4.00;;;3.60;;
15102;SDS011;7652;53.584;9.998;2022-10-13T15:30:44;7.43;;;4.03;;
15102;SDS011;7652;53.584;9.998;2022-10-13T15:33:47;6.30;;;4.43;;
15102;SDS011;7652;53.584;9.998;2022-10-13T15:36:52;5.20;;;4.43;;
15102;SDS011;7652;53.584;9.998;2022-10-13T15:39:55;6.00;;;3.77;;
15102;SDS011;7652;53.584;9.998;2022-10-13T15:42:58;4.50;;;3.50;;
15102;SDS011;7652;53.584;9.998;2022-10-13T15:46:03;6.33;;;3.77;;
15102;SDS011;7652;53.584;9.998;2022-10-13T15:49:07;6.67;;;4.03;;
15102;SDS011;7652;53.584;9.998;2022-10-13T15:52:10;6.60;;;4.20;;
15102;SDS011;7652;53.584;9.998;2022-10-13T15:55:14;6.63;;;4.00;;
15102;SDS011;7652;53.584;9.998;2022-10-13T15:58:17;4.67;;;3.53;;
15102;SDS011;7652;53.584;9.998;2022-10-13T16:01:22;4.83;;;3.30;;
15102;SDS011;7652;53.584;9.998;2022-10-13T16:04:25;8.17;;;4.00;;
15102;SDS011;7652;53.584;9.998;2022-10-13T16:07:32;5.20;;;3.20;;
15102;SDS011;7652;53.584;9.998;2022-10-13T16:10:37;7.13;;;3.40;;
15102;SDS011;7652;53.584;9.998;2022-10-13T16:13:44;5.40;;;3.67;;
15102;SDS011;7652;53.584;9.998;2022-10-13T16:16:49;7.40;;;3.30;;
15102;SDS011;7652;53.584;9.998;2022-10-13T16:19:52;6.47;;;3.60;;
15102;SDS011;7652;53.584;9.998;2022-10-13T16:22:54;6.33;;;3.50;;
15102;SDS011;7652;53.584;9.998;2022-10-13T16:25:58;5.27;;;3.83;;
15102;SDS011;7652;53.584;9.998;2022-10-13T16:29:02;4.70;;;2.97;;
15102;SDS011;7652;53.584;9.998;2022-10-13T16:32:06;7.60;;;3.83;;
15102;SDS011;7652;53.584;9.998;2022-10-13T16:35:09;4.70;;;2.90;;
15102;SDS011;7652;53.584;9.998;2022-10-13T16:38:13;5.53;;;3.40;;
15102;SDS011;7652;53.584;9.998;2022-10-13T16:41:16;4.33;;;3.60;;
15102;SDS011;7652;53.584;9.998;2022-10-13T16:44:20;5.73;;;3.37;;
15102;SDS011;7652;53.584;9.998;2022-10-13T16:47:24;5.50;;;3.07;;
15102;SDS011;7652;53.584;9.998;2022-10-13T16:50:27;4.17;;;3.67;;
15102;SDS011;7652;53.584;9.998;2022-10-13T16:53:30;4.40;;;3.20;;
15102;SDS011;7652;53.584;9.998;2022-10-13T16:56:33;5.77;;;3.67;;
15102;SDS011;7652;53.584;9.998;2022-10-13T16:59:36;4.77;;;3.40;;
15102;SDS011;7652;53.584;9.998;2022-10-13T17:02:41;6.90;;;4.10;;
15102;SDS011;7652;53.584;9.998;2022-10-13T17:05:44;6.90;;;3.63;;
15102;SDS011;7652;53.584;9.998;2022-10-13T17:08:47;4.63;;;3.40;;
15102;SDS011;7652;53.584;9.998;2022-10-13T17:11:50;4.63;;;3.57;;
15102;SDS011;7652;53.584;9.998;2022-10-13T17:14:53;5.60;;;3.90;;
15102;SDS011;7652;53.584;9.998;2022-10-13T17:17:57;6.23;;;3.90;;
15102;SDS011;7652;53.584;9.998;2022-10-13T17:21:01;6.30;;;4.33;;
15102;SDS011;7652;53.584;9.998;2022-10-13T17:24:06;5.83;;;4.03;;
15102;SDS011;7652;53.584;9.998;2022-10-13T17:27:09;4.33;;;3.93;;
15102;SDS011;7652;53.584;9.998;2022-10-13T17:30:12;7.63;;;4.13;;
15102;SDS011;7652;53.584;9.998;2022-10-13T17:33:16;10.50;;;4.80;;
15102;SDS011;7652;53.584;9.998;2022-10-13T17:36:20;9.60;;;5.20;;
15102;SDS011;7652;53.584;9.998;2022-10-13T17:39:24;5.90;;;4.53;;
15102;SDS011;7652;53.584;9.998;2022-10-13T17:42:27;8.00;;;4.93;;
15102;SDS011;7652;53.584;9.998;2022-10-13T17:45:30;7.20;;;5.23;;
15102;SDS011;7652;53.584;9.998;2022-10-13T17:48:34;8.00;;;5.57;;
15102;SDS011;7652;53.584;9.998;2022-10-13T17:51:37;6.00;;;4.83;;
15102;SDS011;7652;53.584;9.998;2022-10-13T17:54:41;7.60;;;5.23;;
15102;SDS011;7652;53.584;9.998;2022-10-13T17:57:44;8.87;;;5.93;;
15102;SDS011;7652;53.584;9.998;2022-10-13T18:00:47;9.87;;;6.87;;
15102;SDS011;7652;53.584;9.998;2022-10-13T18:04:13;9.53;;;6.33;;
15102;SDS011;7652;53.584;9.998;2022-10-13T18:07:18;12.77;;;7.47;;
15102;SDS011;7652;53.584;9.998;2022-10-13T18:10:21;12.37;;;7.90;;
15102;SDS011;7652;53.584;9.998;2022-10-13T18:13:24;12.47;;;7.13;;
15102;SDS011;7652;53.584;9.998;2022-10-13T18:16:27;9.73;;;8.13;;
15102;SDS011;7652;53.584;9.998;2022-10-13T18:19:32;9.80;;;7.17;;
15102;SDS011;7652;53.584;9.998;2022-10-13T18:22:40;9.87;;;7.40;;
15102;SDS011;7652;53.584;9.998;2022-10-13T18:25:43;12.87;;;8.53;;
15102;SDS011;7652;53.584;9.998;2022-10-13T18:28:47;11.73;;;9.60;;
15102;SDS011;7652;53.584;9.998;2022-10-13T18:31:52;11.77;;;8.03;;
15102;SDS011;7652;53.584;9.998;2022-10-13T18:34:57;11.07;;;8.23;;
15102;SDS011;7652;53.584;9.998;2022-10-13T18:38:00;13.37;;;8.57;;
15102;SDS011;7652;53.584;9.998;2022-10-13T18:41:03;10.20;;;8.97;;
15102;SDS011;7652;53.584;9.998;2022-10-13T18:44:07;13.27;;;8.80;;
15102;SDS011;7652;53.584;9.998;2022-10-13T18:47:10;9.83;;;8.67;;
15102;SDS011;7652;53.584;9.998;2022-10-13T18:50:14;13.20;;;9.20;;
15102;SDS011;7652;53.584;9.998;2022-10-13T18:53:17;16.07;;;9.57;;
15102;SDS011;7652;53.584;9.998;2022-10-13T18:56:21;9.97;;;8.63;;
15102;SDS011;7652;53.584;9.998;2022-10-13T18:59:25;11.87;;;8.57;;
15102;SDS011;7652;53.584;9.998;2022-10-13T19:02:28;12.00;;;8.47;;